Time;durP1;ratioP1;P1;durP2;ratioP2;P2;SDS_P1;SDS_P2;PMS_P1;PMS_P2;Temp;Humidity;BMP_temperature;BMP_pressure;BME280_temperature;BME280_humidity;BME280_pressure;Samples;Min_cycle;Max_cycle;Signal;HPM_P1;HPM_P2
2023/08/27 00:02:26;;;;;;;14.57;10.77;;;;;;;;;;4391003;32;319212;-81
2023/08/27 00:04:56;;;;;;;14.75;9.93;;;;;;;;;;4399587;32;318906;-81
2023/08/27 00:07:24;;;;;;;17.75;11.70;;;;;;;;;;4390545;32;317677;-81
2023/08/27 00:09:52;;;;;;;10.90;9.40;;;;;;;;;;4399917;32;319164;-82
2023/08/27 00:12:21;;;;;;;9.80;8.85;;;;;;;;;;4391153;32;317557;-81
2023/08/27 00:14:48;;;;;;;14.50;11.05;;;;;;;;;;4400695;32;315884;-81
2023/08/27 00:17:15;;;;;;;16.17;10.73;;;;;;;;;;4389787;32;318813;-82
2023/08/27 00:19:43;;;;;;;14.48;11.15;;;;;;;;;;4401208;32;318785;-82
2023/08/27 00:22:10;;;;;;;13.57;11.00;;;;;;;;;;4390408;32;319000;-81
2023/08/27 00:24:38;;;;;;;11.77;10.18;;;;;;;;;;4400124;32;318835;-82
2023/08/27 00:27:06;;;;;;;16.42;11.12;;;;;;;;;;4391016;32;318994;-80
2023/08/27 00:29:37;;;;;;;12.35;10.80;;;;;;;;;;4401076;32;319030;-80
2023/08/27 00:32:05;;;;;;;15.93;9.65;;;;;;;;;;4387208;32;318644;-81
2023/08/27 00:34:33;;;;;;;12.18;10.88;;;;;;;;;;4400101;32;317677;-81
2023/08/27 00:37:01;;;;;;;19.45;10.55;;;;;;;;;;4401362;32;319235;-80
2023/08/27 00:39:29;;;;;;;30.55;10.77;;;;;;;;;;4368508;32;421596;-81
2023/08/27 00:41:57;;;;;;;11.65;10.40;;;;;;;;;;4396637;32;319109;-81
2023/08/27 00:44:25;;;;;;;12.10;10.25;;;;;;;;;;4388960;32;328974;-80
2023/08/27 00:46:54;;;;;;;13.07;11.02;;;;;;;;;;4400560;32;319172;-81
2023/08/27 00:49:21;;;;;;;18.30;11.05;;;;;;;;;;4389968;32;318833;-84
2023/08/27 00:51:50;;;;;;;17.00;10.82;;;;;;;;;;4400329;32;318730;-81
2023/08/27 00:54:18;;;;;;;14.57;10.55;;;;;;;;;;4389054;32;319098;-81
2023/08/27 00:56:46;;;;;;;15.88;10.90;;;;;;;;;;4399500;32;348435;-82
2023/08/27 00:59:15;;;;;;;11.80;10.60;;;;;;;;;;4388119;32;319063;-82
2023/08/27 01:01:43;;;;;;;12.18;10.82;;;;;;;;;;4401403;32;318842;-82
2023/08/27 01:04:12;;;;;;;15.73;12.17;;;;;;;;;;4390895;32;319217;-85
2023/08/27 01:06:40;;;;;;;12.90;11.60;;;;;;;;;;4403257;32;318975;-83
2023/08/27 01:09:18;;;;;;;15.05;12.05;;;;;;;;;;4392937;32;318904;-80
2023/08/27 01:11:54;;;;;;;15.38;10.43;;;;;;;;;;4403104;32;318722;-80
2023/08/27 01:14:24;;;;;;;15.45;10.68;;;;;;;;;;4391663;32;318691;-86
2023/08/27 01:16:54;;;;;;;11.30;10.15;;;;;;;;;;4404477;32;318858;-87
2023/08/27 01:19:24;;;;;;;12.15;10.85;;;;;;;;;;4393614;32;318976;-81
2023/08/27 01:21:53;;;;;;;11.48;9.65;;;;;;;;;;4402740;32;318754;-82
2023/08/27 01:24:21;;;;;;;11.05;9.82;;;;;;;;;;4392295;32;336740;-82
2023/08/27 01:26:53;;;;;;;15.27;11.10;;;;;;;;;;4404282;32;317816;-82
2023/08/27 01:29:27;;;;;;;12.40;10.15;;;;;;;;;;4391705;32;319029;-81
2023/08/27 01:32:10;;;;;;;10.93;9.77;;;;;;;;;;4390510;32;318834;-80
2023/08/27 01:34:38;;;;;;;13.32;9.88;;;;;;;;;;4391245;32;417263;-80
2023/08/27 01:37:09;;;;;;;16.75;10.75;;;;;;;;;;4393408;32;317935;-80
2023/08/27 01:39:36;;;;;;;11.68;10.40;;;;;;;;;;4402544;32;346544;-80
2023/08/27 01:42:04;;;;;;;12.25;10.88;;;;;;;;;;4391848;32;319174;-81
2023/08/27 01:44:31;;;;;;;11.80;10.55;;;;;;;;;;4402716;32;319038;-81
2023/08/27 01:46:59;;;;;;;13.27;10.88;;;;;;;;;;4404088;32;318841;-81
2023/08/27 01:49:27;;;;;;;12.75;11.15;;;;;;;;;;4393303;32;318793;-81
2023/08/27 01:51:54;;;;;;;12.00;10.73;;;;;;;;;;4371258;32;318922;-81
2023/08/27 01:54:23;;;;;;;11.55;10.32;;;;;;;;;;4404024;32;319058;-81
2023/08/27 01:56:50;;;;;;;18.37;11.05;;;;;;;;;;4402559;32;318659;-81
2023/08/27 01:59:17;;;;;;;17.08;10.48;;;;;;;;;;4392877;32;319155;-80
2023/08/27 02:01:44;;;;;;;14.10;11.20;;;;;;;;;;4403749;32;318947;-81
2023/08/27 02:04:12;;;;;;;13.80;11.10;;;;;;;;;;4390900;32;356955;-81
2023/08/27 02:06:39;;;;;;;10.75;9.68;;;;;;;;;;4403343;32;318900;-81
2023/08/27 02:09:07;;;;;;;13.93;10.90;;;;;;;;;;4393376;32;317517;-82
2023/08/27 02:11:35;;;;;;;14.80;10.23;;;;;;;;;;4402815;32;317621;-82
2023/08/27 02:14:03;;;;;;;15.15;11.40;;;;;;;;;;4390809;32;318824;-82
2023/08/27 02:16:31;;;;;;;14.75;11.18;;;;;;;;;;4401775;32;318630;-83
2023/08/27 02:18:58;;;;;;;12.32;11.07;;;;;;;;;;4391405;32;319072;-82
2023/08/27 02:21:25;;;;;;;11.45;10.23;;;;;;;;;;4403125;32;318893;-81
2023/08/27 02:23:53;;;;;;;14.48;10.48;;;;;;;;;;4391065;32;318928;-82
2023/08/27 02:26:20;;;;;;;14.55;10.88;;;;;;;;;;4403654;32;319027;-82
2023/08/27 02:28:52;;;;;;;12.13;11.02;;;;;;;;;;4402061;32;317883;-82
2023/08/27 02:31:20;;;;;;;12.15;10.80;;;;;;;;;;4389343;32;418527;-81
2023/08/27 02:33:47;;;;;;;15.38;12.15;;;;;;;;;;4401672;32;319498;-79
2023/08/27 02:36:14;;;;;;;13.77;11.27;;;;;;;;;;4393025;32;318817;-85
2023/08/27 02:38:43;;;;;;;19.15;12.05;;;;;;;;;;4402254;32;319017;-82
2023/08/27 02:41:10;;;;;;;19.42;10.15;;;;;;;;;;4390395;32;319130;-82
2023/08/27 02:43:37;;;;;;;13.23;10.93;;;;;;;;;;4402484;32;318762;-81
2023/08/27 02:46:07;;;;;;;14.43;11.82;;;;;;;;;;4376808;32;319504;-81
2023/08/27 02:48:34;;;;;;;22.10;11.00;;;;;;;;;;4401147;32;318760;-80
2023/08/27 02:51:01;;;;;;;18.75;12.45;;;;;;;;;;4391503;32;318990;-80
2023/08/27 02:53:29;;;;;;;14.32;11.45;;;;;;;;;;4400654;32;347091;-80
2023/08/27 02:55:57;;;;;;;15.60;11.75;;;;;;;;;;4391280;32;318878;-81
2023/08/27 02:58:24;;;;;;;15.48;12.10;;;;;;;;;;4402044;32;318739;-81
2023/08/27 03:00:52;;;;;;;15.15;11.35;;;;;;;;;;4401815;32;358763;-83
2023/08/27 03:03:20;;;;;;;15.00;11.55;;;;;;;;;;4387337;32;421387;-81
2023/08/27 03:05:48;;;;;;;12.02;10.65;;;;;;;;;;4400477;32;318758;-80
2023/08/27 03:08:16;;;;;;;15.63;11.15;;;;;;;;;;4391219;32;319095;-80
2023/08/27 03:10:43;;;;;;;14.40;10.90;;;;;;;;;;4402750;32;318978;-81
2023/08/27 03:13:12;;;;;;;15.13;12.23;;;;;;;;;;4390797;32;336154;-80
2023/08/27 03:15:39;;;;;;;15.43;11.02;;;;;;;;;;4402527;32;319133;-83
2023/08/27 03:18:07;;;;;;;16.17;12.37;;;;;;;;;;4391677;32;319246;-83
2023/08/27 03:20:36;;;;;;;16.73;11.15;;;;;;;;;;4402404;32;319045;-80
2023/08/27 03:23:04;;;;;;;14.57;11.60;;;;;;;;;;4391713;32;318937;-80
2023/08/27 03:25:33;;;;;;;12.70;10.98;;;;;;;;;;4401331;32;318819;-80
2023/08/27 03:28:00;;;;;;;13.43;11.60;;;;;;;;;;4390623;32;318960;-80
2023/08/27 03:30:28;;;;;;;14.13;11.95;;;;;;;;;;4400724;32;319179;-80
2023/08/27 03:32:55;;;;;;;21.87;12.13;;;;;;;;;;4390456;32;318811;-80
2023/08/27 03:35:22;;;;;;;13.15;11.75;;;;;;;;;;4402377;32;318917;-86
2023/08/27 03:37:51;;;;;;;15.77;12.32;;;;;;;;;;4399628;32;319020;-80
2023/08/27 03:40:20;;;;;;;13.52;12.15;;;;;;;;;;4386584;32;418223;-80
2023/08/27 03:42:47;;;;;;;18.50;12.45;;;;;;;;;;4400979;32;318821;-80
2023/08/27 03:45:15;;;;;;;14.30;12.80;;;;;;;;;;4390356;32;328609;-80
2023/08/27 03:47:42;;;;;;;13.32;11.98;;;;;;;;;;4401529;32;319165;-81
2023/08/27 03:50:10;;;;;;;18.65;13.15;;;;;;;;;;4391003;32;318812;-80
2023/08/27 03:52:38;;;;;;;15.60;11.27;;;;;;;;;;4401352;32;344121;-80
2023/08/27 03:55:07;;;;;;;16.12;12.05;;;;;;;;;;4376775;32;318987;-80
2023/08/27 03:57:35;;;;;;;13.82;12.43;;;;;;;;;;4399514;32;318690;-80
2023/08/27 04:00:03;;;;;;;13.15;11.77;;;;;;;;;;4391290;32;318840;-83
2023/08/27 04:02:30;;;;;;;15.52;12.52;;;;;;;;;;4400583;32;319007;-80
2023/08/27 04:04:58;;;;;;;18.90;12.88;;;;;;;;;;4391092;32;318864;-81
2023/08/27 04:07:25;;;;;;;21.42;14.00;;;;;;;;;;4399870;32;318758;-81
2023/08/27 04:09:53;;;;;;;18.52;16.45;;;;;;;;;;4391364;32;318830;-80
2023/08/27 04:12:21;;;;;;;28.42;19.58;;;;;;;;;;4399374;32;319085;-81
2023/08/27 04:14:49;;;;;;;29.35;21.52;;;;;;;;;;4401155;32;318923;-81
2023/08/27 04:17:16;;;;;;;24.40;18.10;;;;;;;;;;4377945;32;319071;-81
2023/08/27 04:19:43;;;;;;;20.00;15.68;;;;;;;;;;4402046;32;318680;-81
2023/08/27 04:22:11;;;;;;;19.93;15.60;;;;;;;;;;4389092;32;333735;-81
2023/08/27 04:24:38;;;;;;;19.75;15.15;;;;;;;;;;4402094;32;318777;-80
2023/08/27 04:27:06;;;;;;;24.30;15.35;;;;;;;;;;4377051;32;318616;-81
2023/08/27 04:29:35;;;;;;;19.40;15.30;;;;;;;;;;4400465;32;318824;-80
2023/08/27 04:32:03;;;;;;;19.37;13.70;;;;;;;;;;4389886;32;318890;-80
2023/08/27 04:34:30;;;;;;;17.05;13.27;;;;;;;;;;4402103;32;318890;-81
2023/08/27 04:36:58;;;;;;;15.35;13.68;;;;;;;;;;4390659;32;319129;-85
2023/08/27 04:39:26;;;;;;;16.62;12.95;;;;;;;;;;4400796;32;319369;-85
2023/08/27 04:41:53;;;;;;;15.38;13.80;;;;;;;;;;4390545;32;318763;-81
2023/08/27 04:44:20;;;;;;;19.35;13.90;;;;;;;;;;4402216;32;318949;-89
2023/08/27 04:46:49;;;;;;;25.40;15.73;;;;;;;;;;4399990;32;321046;-82
2023/08/27 04:49:17;;;;;;;19.85;15.57;;;;;;;;;;4389451;32;319087;-84
2023/08/27 04:51:44;;;;;;;20.05;16.25;;;;;;;;;;4399826;32;318879;-86
2023/08/27 04:54:12;;;;;;;16.45;14.57;;;;;;;;;;4390850;32;318791;-79
2023/08/27 04:56:39;;;;;;;25.95;16.02;;;;;;;;;;4398438;32;319023;-88
2023/08/27 04:59:07;;;;;;;26.05;16.20;;;;;;;;;;4390161;32;348044;-82
2023/08/27 05:01:34;;;;;;;16.15;13.60;;;;;;;;;;4399686;32;318795;-83
2023/08/27 05:04:04;;;;;;;17.10;14.30;;;;;;;;;;4389776;32;319110;-81
2023/08/27 05:06:31;;;;;;;14.93;13.25;;;;;;;;;;4399980;32;319214;-82
2023/08/27 05:08:59;;;;;;;18.57;13.40;;;;;;;;;;4380067;32;318875;-83
2023/08/27 05:11:27;;;;;;;17.02;14.95;;;;;;;;;;4403999;32;318744;-83
2023/08/27 05:13:54;;;;;;;16.48;14.75;;;;;;;;;;4395216;32;318867;-81
2023/08/27 05:16:21;;;;;;;18.45;15.18;;;;;;;;;;4405437;32;318843;-83
2023/08/27 05:18:49;;;;;;;16.90;14.55;;;;;;;;;;4400249;32;319276;-82
2023/08/27 05:21:18;;;;;;;17.45;14.95;;;;;;;;;;4390634;32;318600;-82
2023/08/27 05:23:45;;;;;;;21.17;15.05;;;;;;;;;;4399972;32;318860;-82
2023/08/27 05:26:12;;;;;;;17.83;15.68;;;;;;;;;;4390852;32;318625;-82
2023/08/27 05:28:40;;;;;;;16.08;14.30;;;;;;;;;;4400556;32;318849;-81
2023/08/27 05:31:07;;;;;;;16.83;14.27;;;;;;;;;;4389882;32;318887;-81
2023/08/27 05:33:34;;;;;;;15.60;14.00;;;;;;;;;;4400637;32;318913;-82
2023/08/27 05:36:02;;;;;;;16.65;14.90;;;;;;;;;;4389588;32;340802;-79
2023/08/27 05:38:31;;;;;;;15.63;13.48;;;;;;;;;;4399481;32;318703;-80
2023/08/27 05:40:58;;;;;;;17.17;13.77;;;;;;;;;;4389664;32;319067;-81
2023/08/27 05:43:26;;;;;;;18.10;13.55;;;;;;;;;;4399614;32;318578;-80
2023/08/27 05:45:53;;;;;;;17.62;14.30;;;;;;;;;;4389908;32;318871;-81
2023/08/27 05:48:21;;;;;;;15.65;14.02;;;;;;;;;;4400785;32;318831;-81
2023/08/27 05:50:48;;;;;;;18.15;14.60;;;;;;;;;;4402173;32;318787;-81
2023/08/27 05:53:16;;;;;;;21.65;13.48;;;;;;;;;;4392204;32;318872;-80
2023/08/27 05:55:46;;;;;;;17.95;13.20;;;;;;;;;;4401677;32;318726;-81
2023/08/27 05:58:13;;;;;;;22.55;15.15;;;;;;;;;;4392518;32;318863;-81
2023/08/27 06:00:41;;;;;;;21.95;14.27;;;;;;;;;;4403445;32;318678;-80
2023/08/27 06:03:09;;;;;;;15.82;14.13;;;;;;;;;;4392649;32;318908;-81
2023/08/27 06:05:37;;;;;;;18.23;14.70;;;;;;;;;;4403445;32;319143;-81
2023/08/27 06:08:05;;;;;;;21.98;15.23;;;;;;;;;;4390636;32;319043;-81
2023/08/27 06:10:32;;;;;;;20.95;15.02;;;;;;;;;;4401274;32;359374;-81
2023/08/27 06:13:01;;;;;;;21.40;16.35;;;;;;;;;;4392782;32;319069;-80
2023/08/27 06:15:28;;;;;;;17.25;15.43;;;;;;;;;;4402343;32;318752;-81
2023/08/27 06:18:00;;;;;;;22.62;16.30;;;;;;;;;;4391525;32;319075;-80
2023/08/27 06:20:28;;;;;;;22.77;16.05;;;;;;;;;;4402053;32;319389;-82
2023/08/27 06:22:55;;;;;;;24.92;15.70;;;;;;;;;;4391638;32;319026;-80
2023/08/27 06:25:23;;;;;;;21.55;15.30;;;;;;;;;;4402270;32;318889;-78
2023/08/27 06:27:50;;;;;;;18.92;14.90;;;;;;;;;;4403031;32;319075;-77
2023/08/27 06:30:19;;;;;;;16.65;14.87;;;;;;;;;;4389273;32;418283;-78
2023/08/27 06:32:47;;;;;;;17.10;15.27;;;;;;;;;;4401695;32;318845;-85
2023/08/27 06:35:14;;;;;;;19.52;14.20;;;;;;;;;;4390254;32;354554;-80
2023/08/27 06:37:41;;;;;;;22.95;15.20;;;;;;;;;;4402773;32;319080;-81
2023/08/27 06:40:10;;;;;;;16.70;15.03;;;;;;;;;;4390298;32;344265;-80
2023/08/27 06:42:38;;;;;;;18.73;15.25;;;;;;;;;;4400994;32;319020;-81
2023/08/27 06:45:06;;;;;;;15.90;14.25;;;;;;;;;;4391792;32;319386;-81
2023/08/27 06:47:35;;;;;;;19.12;15.05;;;;;;;;;;4401813;32;318853;-81
2023/08/27 06:50:04;;;;;;;14.90;13.32;;;;;;;;;;4392069;32;319262;-81
2023/08/27 06:52:32;;;;;;;23.90;14.38;;;;;;;;;;4399780;32;318975;-81
2023/08/27 06:55:00;;;;;;;21.12;13.75;;;;;;;;;;4391611;32;319052;-81
2023/08/27 06:57:28;;;;;;;18.02;14.30;;;;;;;;;;4401452;32;317853;-81
2023/08/27 06:59:55;;;;;;;26.37;14.38;;;;;;;;;;4386892;32;333550;-81
2023/08/27 07:02:23;;;;;;;27.60;15.02;;;;;;;;;;4402009;32;319167;-82
2023/08/27 07:04:52;;;;;;;15.90;13.98;;;;;;;;;;4401884;32;318833;-80
2023/08/27 07:07:20;;;;;;;20.73;15.23;;;;;;;;;;4387762;32;421658;-80
2023/08/27 07:09:48;;;;;;;20.20;14.10;;;;;;;;;;4402785;32;318880;-82
2023/08/27 07:12:15;;;;;;;22.25;14.57;;;;;;;;;;4390890;32;332266;-82
2023/08/27 07:14:43;;;;;;;16.33;14.02;;;;;;;;;;4402590;32;318799;-81
2023/08/27 07:17:11;;;;;;;19.75;13.35;;;;;;;;;;4390931;32;319108;-80
2023/08/27 07:19:38;;;;;;;14.87;13.18;;;;;;;;;;4400731;32;319087;-81
2023/08/27 07:22:07;;;;;;;17.67;13.05;;;;;;;;;;4391408;32;318846;-80
2023/08/27 07:24:35;;;;;;;17.65;13.27;;;;;;;;;;4402270;32;318932;-81
2023/08/27 07:27:03;;;;;;;17.62;13.45;;;;;;;;;;4389373;32;346813;-79
2023/08/27 07:29:30;;;;;;;15.35;12.70;;;;;;;;;;4401296;32;318883;-79
2023/08/27 07:31:58;;;;;;;19.33;13.05;;;;;;;;;;4390966;32;318956;-79
2023/08/27 07:34:25;;;;;;;13.80;12.40;;;;;;;;;;4399318;32;319232;-79
2023/08/27 07:36:54;;;;;;;18.60;13.38;;;;;;;;;;4392530;32;319230;-80
2023/08/27 07:39:23;;;;;;;16.77;13.70;;;;;;;;;;4400706;32;318985;-79
2023/08/27 07:41:51;;;;;;;21.80;13.35;;;;;;;;;;4399681;32;319444;-80
2023/08/27 07:44:18;;;;;;;13.50;11.27;;;;;;;;;;4388568;32;418723;-81
2023/08/27 07:46:45;;;;;;;18.00;12.77;;;;;;;;;;4400112;32;354338;-81
2023/08/27 07:49:13;;;;;;;15.93;12.32;;;;;;;;;;4390124;32;318824;-79
2023/08/27 07:51:41;;;;;;;21.35;12.45;;;;;;;;;;4382497;32;318952;-79
2023/08/27 07:54:08;;;;;;;19.23;13.00;;;;;;;;;;4387734;32;319010;-79
2023/08/27 07:56:37;;;;;;;16.50;13.30;;;;;;;;;;4399347;32;319025;-79
2023/08/27 07:59:04;;;;;;;22.20;12.60;;;;;;;;;;4390479;32;319033;-78
2023/08/27 08:01:32;;;;;;;33.33;12.13;;;;;;;;;;4401498;32;318821;-79
2023/08/27 08:03:59;;;;;;;14.60;12.70;;;;;;;;;;4388335;32;319038;-80
2023/08/27 08:06:27;;;;;;;15.27;12.63;;;;;;;;;;4401508;32;319041;-79
2023/08/27 08:08:56;;;;;;;17.73;12.27;;;;;;;;;;4388104;32;401579;-78
2023/08/27 08:11:23;;;;;;;17.42;13.25;;;;;;;;;;4401370;32;319092;-78
2023/08/27 08:13:52;;;;;;;19.67;13.10;;;;;;;;;;4400708;32;318937;-79
2023/08/27 08:16:23;;;;;;;15.48;12.50;;;;;;;;;;4385469;32;418040;-80
2023/08/27 08:18:50;;;;;;;25.02;12.63;;;;;;;;;;4400623;32;318822;-79
2023/08/27 08:21:19;;;;;;;19.52;12.55;;;;;;;;;;4386149;32;418273;-80
2023/08/27 08:23:47;;;;;;;15.50;11.48;;;;;;;;;;4401337;32;318953;-81
2023/08/27 08:26:14;;;;;;;15.07;12.07;;;;;;;;;;4389569;32;319239;-80
2023/08/27 08:28:42;;;;;;;14.43;10.45;;;;;;;;;;4401319;32;319075;-80
2023/08/27 08:31:10;;;;;;;15.57;10.10;;;;;;;;;;4389330;32;319180;-78
2023/08/27 08:33:38;;;;;;;24.52;11.63;;;;;;;;;;4400757;32;318998;-78
2023/08/27 08:36:06;;;;;;;15.23;10.43;;;;;;;;;;4388492;32;352209;-78
2023/08/27 08:38:34;;;;;;;14.85;11.43;;;;;;;;;;4401112;32;318996;-78
2023/08/27 08:41:02;;;;;;;13.57;10.45;;;;;;;;;;4390141;32;319110;-79
2023/08/27 08:43:37;;;;;;;17.70;11.35;;;;;;;;;;4400938;32;318774;-78
2023/08/27 08:46:18;;;;;;;21.70;11.63;;;;;;;;;;4365879;32;328913;-88
2023/08/27 08:48:50;;;;;;;15.15;9.55;;;;;;;;;;4384313;32;318719;-80
2023/08/27 08:51:23;;;;;;;18.95;10.43;;;;;;;;;;4389772;32;325722;-79
2023/08/27 08:53:52;;;;;;;15.20;9.25;;;;;;;;;;4400046;32;318932;-79
2023/08/27 08:56:25;;;;;;;14.73;11.02;;;;;;;;;;4387886;32;417540;-79
2023/08/27 08:58:55;;;;;;;13.38;9.02;;;;;;;;;;4396043;32;319033;-80
2023/08/27 09:01:26;;;;;;;18.15;10.05;;;;;;;;;;4400897;32;318112;-78
2023/08/27 09:03:54;;;;;;;15.32;10.90;;;;;;;;;;4390587;32;319216;-79
2023/08/27 09:06:23;;;;;;;14.60;9.27;;;;;;;;;;4400752;32;319335;-78
2023/08/27 09:08:52;;;;;;;17.90;8.95;;;;;;;;;;4399621;32;317698;-77
2023/08/27 09:11:20;;;;;;;13.77;9.80;;;;;;;;;;4384977;32;416887;-77
2023/08/27 09:13:48;;;;;;;13.27;9.80;;;;;;;;;;4398829;32;317832;-78
2023/08/27 09:16:19;;;;;;;12.77;9.63;;;;;;;;;;4390413;32;318088;-81
2023/08/27 09:18:48;;;;;;;14.43;9.88;;;;;;;;;;4400393;32;317956;-81
2023/08/27 09:21:16;;;;;;;15.35;10.75;;;;;;;;;;4391021;32;318178;-79
2023/08/27 09:23:45;;;;;;;14.20;9.98;;;;;;;;;;4399867;32;318999;-79
2023/08/27 09:26:14;;;;;;;12.90;11.63;;;;;;;;;;4392144;32;318166;-79
2023/08/27 09:28:41;;;;;;;16.67;11.43;;;;;;;;;;4403546;32;319029;-83
2023/08/27 09:31:10;;;;;;;17.48;11.95;;;;;;;;;;4392990;32;318587;-88
2023/08/27 09:33:40;;;;;;;17.75;11.20;;;;;;;;;;4403757;32;318772;-80
2023/08/27 09:36:09;;;;;;;14.02;9.98;;;;;;;;;;4393489;32;319256;-79
2023/08/27 09:38:39;;;;;;;11.32;10.13;;;;;;;;;;4403892;32;318143;-79
2023/08/27 09:41:16;;;;;;;12.40;10.95;;;;;;;;;;4393640;32;325021;-79
2023/08/27 09:43:52;;;;;;;13.32;10.75;;;;;;;;;;4401732;32;318764;-79
2023/08/27 09:46:20;;;;;;;13.85;10.98;;;;;;;;;;4390761;32;418313;-79
2023/08/27 09:48:58;;;;;;;18.98;11.45;;;;;;;;;;4402328;32;348281;-85
2023/08/27 09:51:28;;;;;;;15.75;8.98;;;;;;;;;;4390604;32;389106;-80
2023/08/27 09:53:55;;;;;;;11.43;8.30;;;;;;;;;;4392518;32;328059;-79
2023/08/27 09:56:24;;;;;;;17.27;6.32;;;;;;;;;;4400775;32;317815;-79
2023/08/27 09:58:54;;;;;;;11.20;7.78;;;;;;;;;;4403000;32;317967;-79
2023/08/27 10:01:21;;;;;;;14.43;7.12;;;;;;;;;;4390342;32;417171;-77
2023/08/27 10:03:48;;;;;;;10.23;7.05;;;;;;;;;;4401842;32;317596;-77
2023/08/27 10:06:17;;;;;;;13.18;6.87;;;;;;;;;;4392198;32;317927;-77
2023/08/27 10:08:51;;;;;;;16.45;6.30;;;;;;;;;;4402054;32;317826;-77
2023/08/27 10:11:19;;;;;;;10.40;6.43;;;;;;;;;;4389308;32;417367;-77
2023/08/27 10:13:46;;;;;;;11.18;6.47;;;;;;;;;;4402213;32;318261;-77
2023/08/27 10:16:14;;;;;;;13.07;6.65;;;;;;;;;;4392194;32;318072;-79
2023/08/27 10:18:42;;;;;;;8.82;6.57;;;;;;;;;;4402438;32;317863;-86
2023/08/27 10:21:10;;;;;;;13.60;6.80;;;;;;;;;;4391790;32;316836;-83
2023/08/27 10:23:40;;;;;;;8.63;7.35;;;;;;;;;;4402162;32;318029;-79
2023/08/27 10:26:09;;;;;;;12.05;6.93;;;;;;;;;;4392753;32;316828;-83
2023/08/27 10:28:37;;;;;;;18.25;7.25;;;;;;;;;;4401716;32;318148;-77
2023/08/27 10:31:05;;;;;;;10.73;6.90;;;;;;;;;;4393008;32;317737;-77
2023/08/27 10:33:32;;;;;;;8.55;6.85;;;;;;;;;;4400397;32;358074;-81
2023/08/27 10:36:05;;;;;;;9.25;6.60;;;;;;;;;;4392184;32;316962;-78
2023/08/27 10:38:35;;;;;;;10.60;6.12;;;;;;;;;;4402343;32;316603;-78
2023/08/27 10:41:03;;;;;;;9.40;6.70;;;;;;;;;;4392165;32;334835;-78
2023/08/27 10:43:36;;;;;;;12.07;6.60;;;;;;;;;;4402424;32;316780;-77
2023/08/27 10:46:11;;;;;;;9.47;5.93;;;;;;;;;;4389234;32;357436;-77
2023/08/27 10:48:39;;;;;;;13.68;6.53;;;;;;;;;;4400981;32;316673;-78
2023/08/27 10:51:11;;;;;;;13.40;6.57;;;;;;;;;;4391997;32;317911;-77
2023/08/27 10:53:53;;;;;;;10.93;6.10;;;;;;;;;;4402200;32;317754;-78
2023/08/27 10:56:36;;;;;;;10.00;7.12;;;;;;;;;;4389212;32;417186;-78
2023/08/27 10:59:09;;;;;;;12.63;6.93;;;;;;;;;;4388715;32;317834;-79
2023/08/27 11:02:07;;;;;;;11.30;6.05;;;;;;;;;;4399374;32;346103;-78
2023/08/27 11:04:41;;;;;;;12.13;6.35;;;;;;;;;;4368687;32;418075;-76
2023/08/27 11:07:19;;;;;;;10.15;6.45;;;;;;;;;;4372329;32;317353;-78
2023/08/27 11:09:48;;;;;;;16.12;6.20;;;;;;;;;;4400830;32;318058;-80
2023/08/27 11:12:24;;;;;;;12.40;6.40;;;;;;;;;;4392265;32;317976;-81
2023/08/27 11:14:53;;;;;;;7.62;6.15;;;;;;;;;;4401236;32;317579;-82
2023/08/27 11:17:26;;;;;;;16.98;6.22;;;;;;;;;;4388724;32;416169;-78
2023/08/27 11:19:54;;;;;;;13.32;6.35;;;;;;;;;;4391092;32;317868;-79
2023/08/27 11:22:24;;;;;;;11.10;6.20;;;;;;;;;;4402189;32;317900;-76
2023/08/27 11:24:53;;;;;;;10.82;6.25;;;;;;;;;;4379779;32;317855;-76
2023/08/27 11:27:22;;;;;;;10.52;5.95;;;;;;;;;;4387418;32;417191;-76
2023/08/27 11:29:51;;;;;;;7.78;5.35;;;;;;;;;;4401185;32;317737;-76
2023/08/27 11:32:21;;;;;;;6.85;5.82;;;;;;;;;;4387359;32;416298;-77
2023/08/27 11:34:51;;;;;;;8.50;6.30;;;;;;;;;;4398910;32;316644;-77
2023/08/27 11:37:20;;;;;;;12.45;6.35;;;;;;;;;;4386109;32;417133;-81
2023/08/27 11:39:48;;;;;;;15.50;6.30;;;;;;;;;;4399593;32;317170;-77
2023/08/27 11:42:17;;;;;;;10.30;6.03;;;;;;;;;;4389766;32;318015;-77
2023/08/27 11:44:48;;;;;;;13.13;6.40;;;;;;;;;;4401822;32;317883;-77
2023/08/27 11:47:16;;;;;;;10.35;6.72;;;;;;;;;;4392043;32;317796;-77
2023/08/27 11:49:45;;;;;;;10.25;6.93;;;;;;;;;;4401578;32;317806;-79
2023/08/27 11:52:14;;;;;;;12.02;6.78;;;;;;;;;;4390525;32;317849;-83
2023/08/27 11:54:43;;;;;;;13.65;5.82;;;;;;;;;;4399773;32;318063;-77
2023/08/27 11:57:10;;;;;;;9.32;6.07;;;;;;;;;;4390341;32;317522;-77
2023/08/27 11:59:40;;;;;;;8.68;6.53;;;;;;;;;;4400537;32;316871;-82
2023/08/27 12:02:11;;;;;;;10.55;6.50;;;;;;;;;;4392502;32;316519;-83
2023/08/27 12:04:41;;;;;;;8.50;6.05;;;;;;;;;;4399255;32;317857;-81
2023/08/27 12:07:10;;;;;;;12.27;6.43;;;;;;;;;;4389262;32;316865;-77
2023/08/27 12:09:39;;;;;;;9.30;6.43;;;;;;;;;;4398731;32;317914;-80
2023/08/27 12:12:08;;;;;;;9.65;6.03;;;;;;;;;;4391664;32;316520;-77
2023/08/27 12:14:36;;;;;;;13.05;6.47;;;;;;;;;;4400726;32;316478;-76
2023/08/27 12:17:07;;;;;;;26.37;5.68;;;;;;;;;;4390904;32;317688;-76
2023/08/27 12:19:35;;;;;;;8.45;5.60;;;;;;;;;;4400108;32;354458;-76
2023/08/27 12:22:02;;;;;;;12.77;5.90;;;;;;;;;;4389957;32;316946;-77
2023/08/27 12:24:33;;;;;;;9.43;6.40;;;;;;;;;;4399830;32;317740;-77
2023/08/27 12:27:02;;;;;;;8.48;5.68;;;;;;;;;;4389743;32;316659;-78
2023/08/27 12:29:31;;;;;;;12.05;5.80;;;;;;;;;;4399459;32;317267;-77
2023/08/27 12:32:08;;;;;;;10.30;5.85;;;;;;;;;;4391469;32;317690;-77
2023/08/27 12:34:37;;;;;;;8.35;6.18;;;;;;;;;;4400774;32;317981;-77
2023/08/27 12:37:05;;;;;;;8.23;4.95;;;;;;;;;;4388225;32;315787;-78
2023/08/27 12:39:36;;;;;;;9.95;5.85;;;;;;;;;;4398724;32;356468;-78
2023/08/27 12:42:04;;;;;;;11.43;5.62;;;;;;;;;;4390155;32;316921;-78
2023/08/27 12:44:35;;;;;;;9.23;5.30;;;;;;;;;;4400794;32;317930;-78
2023/08/27 12:47:02;;;;;;;5.90;4.60;;;;;;;;;;4390463;32;321380;-77
2023/08/27 12:49:30;;;;;;;11.40;5.15;;;;;;;;;;4401446;32;317291;-77
2023/08/27 12:51:57;;;;;;;11.68;5.20;;;;;;;;;;4389270;32;318954;-78
2023/08/27 12:54:25;;;;;;;12.95;4.93;;;;;;;;;;4399162;32;317685;-88
2023/08/27 12:56:54;;;;;;;8.02;4.90;;;;;;;;;;4399988;32;316522;-78
2023/08/27 12:59:22;;;;;;;9.40;4.72;;;;;;;;;;4389187;32;416432;-78
2023/08/27 13:01:50;;;;;;;10.80;4.97;;;;;;;;;;4404639;32;316847;-78
2023/08/27 13:04:17;;;;;;;9.27;5.12;;;;;;;;;;4390262;32;417246;-77
2023/08/27 13:06:45;;;;;;;7.25;5.20;;;;;;;;;;4403227;32;317136;-77
2023/08/27 13:09:13;;;;;;;8.63;4.50;;;;;;;;;;4393136;32;316725;-77
2023/08/27 13:11:40;;;;;;;6.37;5.25;;;;;;;;;;4402237;32;316741;-77
2023/08/27 13:14:09;;;;;;;11.05;4.87;;;;;;;;;;4391760;32;317395;-76
2023/08/27 13:16:37;;;;;;;14.57;4.32;;;;;;;;;;4402921;32;317818;-76
2023/08/27 13:19:05;;;;;;;8.95;5.18;;;;;;;;;;4391542;32;317826;-77
2023/08/27 13:21:32;;;;;;;11.32;5.30;;;;;;;;;;4403838;32;317008;-77
2023/08/27 13:24:03;;;;;;;11.52;4.43;;;;;;;;;;4390862;32;317880;-78
2023/08/27 13:26:31;;;;;;;5.78;4.22;;;;;;;;;;4403094;32;317928;-77
2023/08/27 13:28:58;;;;;;;10.20;4.72;;;;;;;;;;4393480;32;316722;-77
2023/08/27 13:31:28;;;;;;;9.10;4.45;;;;;;;;;;4403226;32;317914;-77
2023/08/27 13:33:55;;;;;;;11.82;5.32;;;;;;;;;;4391629;32;316931;-77
2023/08/27 13:36:22;;;;;;;8.45;4.37;;;;;;;;;;4404054;32;317839;-77
2023/08/27 13:38:50;;;;;;;13.25;4.97;;;;;;;;;;4403890;32;316714;-78
2023/08/27 13:41:17;;;;;;;10.70;3.80;;;;;;;;;;4393604;32;317761;-77
2023/08/27 13:43:45;;;;;;;16.87;5.50;;;;;;;;;;4402433;32;317755;-77
2023/08/27 13:46:13;;;;;;;16.10;4.70;;;;;;;;;;4392379;32;318009;-77
2023/08/27 13:48:42;;;;;;;10.85;3.92;;;;;;;;;;4403310;32;317637;-77
2023/08/27 13:51:09;;;;;;;8.27;3.97;;;;;;;;;;4392372;32;317778;-77
2023/08/27 13:53:36;;;;;;;10.15;5.25;;;;;;;;;;4402259;32;316880;-77
2023/08/27 13:56:04;;;;;;;6.80;4.43;;;;;;;;;;4391303;32;318185;-77
2023/08/27 13:58:31;;;;;;;6.47;4.40;;;;;;;;;;4403323;32;316563;-77
2023/08/27 14:00:59;;;;;;;6.15;4.22;;;;;;;;;;4392509;32;316732;-77
2023/08/27 14:03:26;;;;;;;22.92;5.03;;;;;;;;;;4403035;32;316587;-77
2023/08/27 14:05:56;;;;;;;7.87;4.37;;;;;;;;;;4391546;32;375492;-78
2023/08/27 14:08:27;;;;;;;7.40;4.55;;;;;;;;;;4402264;32;316574;-77
2023/08/27 14:10:55;;;;;;;6.43;3.87;;;;;;;;;;4391540;32;316875;-77
2023/08/27 14:13:23;;;;;;;6.03;3.53;;;;;;;;;;4400700;32;316592;-76
2023/08/27 14:15:50;;;;;;;11.20;4.55;;;;;;;;;;4403000;32;316673;-78
2023/08/27 14:18:17;;;;;;;13.25;4.15;;;;;;;;;;4388625;32;418429;-78
2023/08/27 14:20:45;;;;;;;7.87;4.05;;;;;;;;;;4401813;32;317713;-77